sensor_id;sensor_type;location;lat;lon;timestamp;P1;durP1;ratioP1;P2;durP2;ratioP2
40170;SDS011;37650;52.790;18.268;2023-08-20T18:37:23;5.50;;;3.30;;
40170;SDS011;37650;52.790;18.268;2023-08-20T18:40:47;7.90;;;4.30;;
40170;SDS011;37650;52.790;18.268;2023-08-20T18:44:08;7.20;;;4.50;;
40170;SDS011;37650;52.790;18.268;2023-08-20T18:47:31;6.30;;;4.20;;
40170;SDS011;37650;52.790;18.268;2023-08-20T18:50:53;6.20;;;3.90;;
40170;SDS011;37650;52.790;18.268;2023-08-20T18:54:15;7.10;;;3.90;;
40170;SDS011;37650;52.790;18.268;2023-08-20T18:57:37;8.60;;;4.00;;
40170;SDS011;37650;52.790;18.268;2023-08-20T19:00:59;6.80;;;4.80;;
40170;SDS011;37650;52.790;18.268;2023-08-20T19:04:21;10.20;;;5.50;;
40170;SDS011;37650;52.790;18.268;2023-08-20T19:07:43;14.50;;;6.50;;
40170;SDS011;37650;52.790;18.268;2023-08-20T19:11:08;16.90;;;10.50;;
40170;SDS011;37650;52.790;18.268;2023-08-20T19:14:31;14.90;;;10.00;;
40170;SDS011;37650;52.790;18.268;2023-08-20T19:17:54;14.00;;;9.40;;
40170;SDS011;37650;52.790;18.268;2023-08-20T19:21:17;10.20;;;7.60;;
40170;SDS011;37650;52.790;18.268;2023-08-20T19:28:00;10.60;;;5.70;;
40170;SDS011;37650;52.790;18.268;2023-08-20T19:31:24;8.40;;;6.60;;
40170;SDS011;37650;52.790;18.268;2023-08-20T19:34:46;10.10;;;6.20;;
40170;SDS011;37650;52.790;18.268;2023-08-20T19:38:08;8.30;;;5.30;;
40170;SDS011;37650;52.790;18.268;2023-08-20T19:41:31;8.20;;;6.10;;
40170;SDS011;37650;52.790;18.268;2023-08-20T19:44:53;11.80;;;6.50;;
40170;SDS011;37650;52.790;18.268;2023-08-20T19:48:15;9.10;;;5.60;;
40170;SDS011;37650;52.790;18.268;2023-08-20T19:51:38;9.60;;;5.50;;
40170;SDS011;37650;52.790;18.268;2023-08-20T19:55:05;6.30;;;5.50;;
40170;SDS011;37650;52.790;18.268;2023-08-20T19:58:29;8.80;;;5.80;;
40170;SDS011;37650;52.790;18.268;2023-08-20T20:01:52;8.70;;;5.80;;
40170;SDS011;37650;52.790;18.268;2023-08-20T20:05:15;7.90;;;6.00;;
40170;SDS011;37650;52.790;18.268;2023-08-20T20:08:38;10.10;;;5.60;;
40170;SDS011;37650;52.790;18.268;2023-08-20T20:12:01;9.40;;;6.40;;
40170;SDS011;37650;52.790;18.268;2023-08-20T20:15:24;8.90;;;6.50;;
40170;SDS011;37650;52.790;18.268;2023-08-20T20:18:47;9.10;;;6.90;;
40170;SDS011;37650;52.790;18.268;2023-08-20T20:22:12;7.60;;;6.80;;
40170;SDS011;37650;52.790;18.268;2023-08-20T20:25:36;11.50;;;7.00;;
40170;SDS011;37650;52.790;18.268;2023-08-20T20:29:02;9.20;;;7.00;;
40170;SDS011;37650;52.790;18.268;2023-08-20T20:32:24;8.60;;;7.40;;
40170;SDS011;37650;52.790;18.268;2023-08-20T20:35:53;9.10;;;7.70;;
40170;SDS011;37650;52.790;18.268;2023-08-20T20:39:15;8.60;;;7.80;;
40170;SDS011;37650;52.790;18.268;2023-08-20T20:42:40;11.30;;;8.00;;
40170;SDS011;37650;52.790;18.268;2023-08-20T20:46:04;10.30;;;7.50;;
40170;SDS011;37650;52.790;18.268;2023-08-20T20:49:28;9.60;;;8.60;;
40170;SDS011;37650;52.790;18.268;2023-08-20T20:52:51;9.10;;;8.30;;
40170;SDS011;37650;52.790;18.268;2023-08-20T20:56:13;10.30;;;8.60;;
40170;SDS011;37650;52.790;18.268;2023-08-20T20:59:35;12.70;;;8.60;;
40170;SDS011;37650;52.790;18.268;2023-08-20T21:02:57;11.00;;;8.70;;
40170;SDS011;37650;52.790;18.268;2023-08-20T21:06:18;8.50;;;7.70;;
40170;SDS011;37650;52.790;18.268;2023-08-20T21:09:39;11.30;;;9.10;;
40170;SDS011;37650;52.790;18.268;2023-08-20T21:13:00;10.70;;;9.70;;
40170;SDS011;37650;52.790;18.268;2023-08-20T21:16:23;10.10;;;8.60;;
40170;SDS011;37650;52.790;18.268;2023-08-20T21:19:44;11.00;;;9.90;;
40170;SDS011;37650;52.790;18.268;2023-08-20T21:23:05;10.00;;;9.10;;
40170;SDS011;37650;52.790;18.268;2023-08-20T21:26:27;11.10;;;10.10;;
40170;SDS011;37650;52.790;18.268;2023-08-20T21:29:49;11.10;;;9.60;;
40170;SDS011;37650;52.790;18.268;2023-08-20T21:33:11;12.70;;;11.50;;
40170;SDS011;37650;52.790;18.268;2023-08-20T21:36:33;15.30;;;13.80;;
40170;SDS011;37650;52.790;18.268;2023-08-20T21:39:54;17.50;;;15.70;;
40170;SDS011;37650;52.790;18.268;2023-08-20T21:43:15;13.40;;;12.20;;
40170;SDS011;37650;52.790;18.268;2023-08-20T21:46:36;12.90;;;11.70;;
40170;SDS011;37650;52.790;18.268;2023-08-20T21:49:58;13.20;;;11.20;;
40170;SDS011;37650;52.790;18.268;2023-08-20T21:53:19;12.50;;;11.30;;
40170;SDS011;37650;52.790;18.268;2023-08-20T21:56:40;12.10;;;11.00;;
40170;SDS011;37650;52.790;18.268;2023-08-20T22:00:02;11.40;;;10.40;;
